createdAt,value
2022-11-26T08:20:14.929Z,1.44
2022-11-26T08:23:26.813Z,1.55
2022-11-26T08:26:43.564Z,1.60
2022-11-26T08:29:53.786Z,1.70
2022-11-26T08:33:03.483Z,1.81
2022-11-26T08:36:14.726Z,1.91
2022-11-26T08:39:24.480Z,1.99
2022-11-26T08:42:34.167Z,2.12
2022-11-26T08:45:43.928Z,2.27
2022-11-26T08:48:56.047Z,2.43
2022-11-26T08:52:07.466Z,2.58
2022-11-26T08:55:17.410Z,2.71
2022-11-26T08:58:27.165Z,2.96
2022-11-26T09:01:37.010Z,3.27
2022-11-26T09:04:46.745Z,3.50
2022-11-26T09:07:57.689Z,3.68
2022-11-26T09:11:07.358Z,3.98
2022-11-26T09:14:19.264Z,4.22
2022-11-26T09:17:29.034Z,4.51
2022-11-26T09:20:38.844Z,4.77
2022-11-26T09:23:50.252Z,5.07
2022-11-26T09:27:05.897Z,5.37
2022-11-26T09:30:17.349Z,5.56
2022-11-26T09:33:27.407Z,5.73
2022-11-26T09:36:37.179Z,5.95
2022-11-26T09:39:48.243Z,6.03
2022-11-26T09:43:04.647Z,5.88
2022-11-26T09:46:18.852Z,6.01
2022-11-26T09:49:30.830Z,6.34
2022-11-26T09:52:44.029Z,6.36
2022-11-26T09:55:57.439Z,6.44
2022-11-26T09:59:12.857Z,6.50
2022-11-26T10:02:25.205Z,6.37
2022-11-26T10:05:43.368Z,6.34
2022-11-26T16:00:01.458Z,6.90
2022-11-26T16:03:33.890Z,6.95
2022-11-26T16:06:43.683Z,7.01
2022-11-26T16:10:11.824Z,7.02
2022-11-26T16:13:23.134Z,7.06
2022-11-26T16:16:34.369Z,7.06
2022-11-26T16:19:49.976Z,7.10
2022-11-26T16:23:01.758Z,7.08
2022-11-26T16:26:16.325Z,7.02
2022-11-26T16:29:27.078Z,6.82
2022-11-26T16:32:38.554Z,6.75
2022-11-26T16:35:49.543Z,6.88
2022-11-26T16:38:59.229Z,6.94
2022-11-26T16:42:15.725Z,6.98
2022-11-26T16:45:25.424Z,6.92
2022-11-26T16:48:36.365Z,6.93
2022-11-26T16:51:46.176Z,6.92
2022-11-26T16:54:55.932Z,6.87
2022-11-26T16:58:05.945Z,6.84
2022-11-26T17:01:15.822Z,6.85
2022-11-26T17:04:27.116Z,6.84
2022-11-26T17:07:40.495Z,6.94
2022-11-26T17:10:51.028Z,6.98
2022-11-26T17:14:00.810Z,6.99
2022-11-26T17:17:18.013Z,7.05
2022-11-26T17:20:31.690Z,7.05
2022-11-26T17:23:41.816Z,7.05
2022-11-26T17:26:52.784Z,7.06
2022-11-26T17:30:02.750Z,7.03
2022-11-26T17:33:13.073Z,6.99
2022-11-26T17:36:24.756Z,6.99
2022-11-26T17:39:34.569Z,6.98
2022-11-26T17:42:44.395Z,6.93
2022-11-26T17:46:03.484Z,6.90
2022-11-26T17:49:13.297Z,6.89
2022-11-26T17:52:24.318Z,6.85
2022-11-26T17:55:34.631Z,6.82
2022-11-26T17:58:44.316Z,6.75
2022-11-26T18:01:54.092Z,6.67
2022-11-26T18:05:03.888Z,6.66
2022-11-26T18:08:15.029Z,6.57
2022-11-26T18:11:43.361Z,6.57
2022-11-26T18:14:53.659Z,6.62
2022-11-26T18:18:04.557Z,6.65
2022-11-26T18:21:14.337Z,6.50
2022-11-26T18:24:25.544Z,6.50
2022-11-26T18:27:35.461Z,6.50
2022-11-26T18:30:46.089Z,6.37
2022-11-26T18:33:56.070Z,6.31
2022-11-26T18:37:05.923Z,6.28
2022-11-26T18:40:18.195Z,6.29
2022-11-26T18:43:27.953Z,6.33
2022-11-26T18:46:38.116Z,6.35
2022-11-26T18:49:48.195Z,6.17
2022-11-26T18:52:59.327Z,6.20
2022-11-26T18:56:12.005Z,6.30
2022-11-26T18:59:21.848Z,6.33
2022-11-26T19:02:31.735Z,6.38
2022-11-26T19:05:42.548Z,6.41
2022-11-26T19:08:57.228Z,6.41
2022-11-26T19:12:08.554Z,6.37
2022-11-26T19:15:18.464Z,6.40
2022-11-26T19:18:28.344Z,6.45
2022-11-26T19:21:38.112Z,6.49
2022-11-26T19:24:49.356Z,6.50
2022-11-26T19:28:04.786Z,6.51
2022-11-26T19:31:16.502Z,6.51
2022-11-26T19:34:26.332Z,6.50
2022-11-26T19:37:36.346Z,6.48
2022-11-26T19:40:46.097Z,6.49
2022-11-26T19:43:57.257Z,6.44
2022-11-26T19:47:07.017Z,6.43
2022-11-26T19:50:17.047Z,6.36
2022-11-26T19:53:26.904Z,6.35
2022-11-26T19:56:37.380Z,6.41
2022-11-26T19:59:48.366Z,6.36
2022-11-26T20:02:58.247Z,6.27
2022-11-26T20:06:12.853Z,6.29
2022-11-26T20:09:23.985Z,6.25
2022-11-26T20:12:33.696Z,6.26
2022-11-26T20:15:47.387Z,6.28
2022-11-26T20:18:58.016Z,6.21
2022-11-26T20:22:08.412Z,6.29
2022-11-26T20:25:18.236Z,6.29
2022-11-26T20:28:27.951Z,6.31
2022-11-26T20:31:44.505Z,6.22
2022-11-26T20:34:54.263Z,6.14
2022-11-26T20:38:04.063Z,6.11
2022-11-26T20:41:15.963Z,6.16
2022-11-26T20:44:26.758Z,6.11
2022-11-26T20:47:37.841Z,6.07
2022-11-26T20:50:47.549Z,6.15
2022-11-26T20:53:59.503Z,6.16
2022-11-26T20:57:09.194Z,6.05
2022-11-26T21:00:24.838Z,6.08
2022-11-26T21:03:37.340Z,6.10
2022-11-26T21:06:47.124Z,6.01
2022-11-26T21:09:58.235Z,5.86
2022-11-26T21:13:08.591Z,5.80
2022-11-26T21:16:19.139Z,5.56
2022-11-26T21:19:30.644Z,5.53
2022-11-26T21:22:40.548Z,5.61
2022-11-26T21:25:50.245Z,5.56
2022-11-26T21:29:01.104Z,5.67
2022-11-26T21:32:10.808Z,5.77
2022-11-26T21:35:21.868Z,5.86
2022-11-26T21:38:31.610Z,5.90
2022-11-26T21:41:41.409Z,5.97
2022-11-26T21:44:51.188Z,5.98
2022-11-26T21:48:01.031Z,6.00
2022-11-26T21:51:14.006Z,6.04
2022-11-26T21:54:23.852Z,6.09
2022-11-26T21:57:34.098Z,6.09
2022-11-26T22:00:44.134Z,6.10
2022-11-26T22:03:55.517Z,6.11
2022-11-26T22:07:06.878Z,6.10
2022-11-26T22:10:17.092Z,6.11
2022-11-26T22:13:26.916Z,6.08
2022-11-26T22:16:36.937Z,6.05
2022-11-26T22:19:47.327Z,6.04
2022-11-26T22:22:59.163Z,6.03
2022-11-26T22:26:09.360Z,6.02
2022-11-26T22:29:20.243Z,6.03
